createdAt,value
2017-08-13T00:00:53.079Z,17.60
2017-08-13T00:03:27.657Z,17.60
2017-08-13T00:06:02.242Z,17.60
2017-08-13T00:08:36.677Z,17.60
2017-08-13T00:11:11.858Z,17.60
2017-08-13T00:13:46.675Z,17.50
2017-08-13T00:16:21.253Z,17.60
2017-08-13T00:18:55.411Z,17.60
2017-08-13T00:21:29.841Z,17.60
2017-08-13T00:24:04.266Z,17.50
2017-08-13T00:26:38.817Z,17.60
2017-08-13T00:29:13.409Z,17.50
2017-08-13T00:31:48.657Z,17.50
2017-08-13T00:34:23.185Z,17.50
2017-08-13T00:36:57.801Z,17.40
2017-08-13T00:39:32.461Z,17.40
2017-08-13T00:42:07.069Z,17.40
2017-08-13T00:44:42.304Z,17.40
2017-08-13T00:47:16.746Z,17.40
2017-08-13T00:49:51.175Z,17.50
2017-08-13T00:52:26.067Z,17.40
2017-08-13T00:55:00.499Z,17.40
2017-08-13T00:57:35.122Z,17.40
2017-08-13T01:00:15.048Z,17.40
2017-08-13T01:02:49.590Z,17.50
2017-08-13T01:05:24.211Z,17.50
2017-08-13T01:07:58.734Z,17.50
2017-08-13T01:10:33.270Z,17.40
2017-08-13T01:13:07.916Z,17.40
2017-08-13T01:15:42.542Z,17.40
2017-08-13T01:18:17.145Z,17.50
2017-08-13T01:20:51.602Z,17.40
2017-08-13T01:23:26.038Z,17.40
2017-08-13T01:26:00.642Z,17.40
2017-08-13T01:28:35.129Z,17.40
2017-08-13T01:31:10.492Z,17.50
2017-08-13T01:33:44.930Z,17.40
2017-08-13T01:36:19.489Z,17.50
2017-08-13T01:38:54.670Z,17.40
2017-08-13T01:41:29.360Z,17.40
2017-08-13T01:44:03.943Z,17.40
2017-08-13T01:46:38.485Z,17.40
2017-08-13T01:49:13.091Z,17.40
2017-08-13T01:51:47.637Z,17.40
2017-08-13T01:54:22.242Z,17.50
2017-08-13T01:56:56.893Z,17.40
2017-08-13T01:59:31.451Z,17.40
2017-08-13T02:02:06.026Z,17.50
2017-08-13T02:04:40.630Z,17.40
2017-08-13T02:07:15.393Z,17.50
2017-08-13T02:09:50.058Z,17.50
2017-08-13T02:12:24.566Z,17.50
2017-08-13T02:14:59.178Z,17.50
2017-08-13T02:17:33.790Z,17.50
2017-08-13T02:20:16.641Z,17.50
2017-08-13T02:22:51.218Z,17.50
2017-08-13T02:25:25.810Z,17.50
2017-08-13T02:28:00.230Z,17.50
2017-08-13T02:30:34.772Z,17.50
2017-08-13T02:33:09.190Z,17.60
2017-08-13T02:35:43.750Z,17.60
2017-08-13T02:38:18.266Z,17.50
2017-08-13T02:40:52.849Z,17.50
2017-08-13T02:43:27.389Z,17.60
2017-08-13T02:46:01.929Z,17.60
2017-08-13T02:48:37.249Z,17.60
2017-08-13T02:51:11.746Z,17.60
2017-08-13T02:53:46.385Z,17.70
2017-08-13T02:56:20.925Z,17.70
2017-08-13T02:58:55.637Z,17.70
2017-08-13T03:01:30.161Z,17.70
2017-08-13T03:04:04.713Z,17.70
2017-08-13T03:06:39.333Z,17.80
2017-08-13T03:09:13.744Z,17.80
2017-08-13T03:11:48.333Z,17.80
2017-08-13T03:14:22.981Z,17.80
2017-08-13T03:16:57.483Z,17.80
2017-08-13T03:19:32.081Z,17.70
2017-08-13T03:22:06.637Z,17.70
2017-08-13T03:24:41.188Z,17.80
2017-08-13T03:27:15.928Z,17.80
2017-08-13T03:29:50.497Z,17.80
2017-08-13T03:32:25.094Z,17.80
2017-08-13T03:34:59.637Z,17.80
2017-08-13T03:37:34.162Z,17.70
2017-08-13T03:40:14.906Z,17.80
2017-08-13T03:42:49.333Z,17.80
2017-08-13T03:45:23.877Z,17.80
2017-08-13T03:47:58.438Z,17.80
2017-08-13T03:50:33.690Z,17.70
2017-08-13T03:53:08.361Z,17.80
2017-08-13T03:55:42.949Z,17.80
2017-08-13T03:58:17.498Z,17.80
2017-08-13T04:00:52.692Z,17.90
2017-08-13T04:03:27.319Z,17.90
2017-08-13T04:06:01.907Z,17.90
2017-08-13T04:08:36.326Z,17.90
2017-08-13T04:11:10.898Z,17.90
2017-08-13T04:13:45.334Z,17.90
2017-08-13T04:16:19.931Z,17.90
2017-08-13T04:18:54.569Z,17.90
2017-08-13T04:21:29.142Z,17.90
2017-08-13T04:24:03.749Z,17.90
2017-08-13T04:26:38.330Z,18.00
2017-08-13T04:29:12.921Z,18.00
2017-08-13T04:31:47.535Z,18.00
2017-08-13T04:34:22.018Z,18.00
2017-08-13T04:36:56.657Z,18.00
2017-08-13T04:39:31.241Z,18.00
2017-08-13T04:42:05.821Z,18.10
2017-08-13T04:44:40.330Z,18.00
2017-08-13T04:47:14.978Z,18.00
2017-08-13T04:49:49.494Z,18.10
2017-08-13T04:52:24.064Z,18.10
2017-08-13T04:54:58.481Z,18.10
2017-08-13T04:57:33.870Z,18.10
2017-08-13T05:00:15.581Z,18.10
2017-08-13T05:02:50.205Z,18.10
2017-08-13T05:05:24.801Z,18.20
2017-08-13T05:07:59.365Z,18.30
2017-08-13T05:10:33.934Z,18.30
2017-08-13T05:13:08.458Z,18.30
2017-08-13T05:15:43.001Z,18.40
2017-08-13T05:18:17.621Z,18.50
2017-08-13T05:20:52.214Z,18.50
2017-08-13T05:23:27.403Z,18.50
2017-08-13T05:26:02.031Z,18.40
2017-08-13T05:28:36.585Z,18.50
2017-08-13T05:31:11.106Z,18.60
2017-08-13T05:33:45.730Z,18.50
2017-08-13T05:36:20.361Z,18.50
2017-08-13T05:38:55.110Z,18.50
2017-08-13T05:41:29.694Z,18.50
2017-08-13T05:44:04.275Z,18.50
2017-08-13T05:46:38.821Z,18.50
2017-08-13T05:49:13.446Z,18.50
2017-08-13T05:51:47.889Z,18.50
2017-08-13T05:54:22.324Z,18.50
2017-08-13T05:56:56.873Z,18.50
2017-08-13T05:59:31.518Z,18.50
2017-08-13T06:02:06.134Z,18.40
2017-08-13T06:04:40.705Z,18.50
2017-08-13T06:07:15.338Z,18.50
2017-08-13T06:09:50.664Z,18.50
2017-08-13T06:12:25.117Z,18.50
2017-08-13T06:14:59.671Z,18.50
2017-08-13T06:17:34.187Z,18.60
2017-08-13T06:20:16.011Z,18.60
2017-08-13T06:22:50.589Z,18.60
2017-08-13T06:25:25.137Z,18.70
2017-08-13T06:27:59.693Z,18.80
2017-08-13T06:30:34.342Z,18.80
2017-08-13T06:33:08.833Z,18.90
2017-08-13T06:35:43.374Z,18.90
2017-08-13T06:38:17.853Z,19.00
2017-08-13T06:40:52.368Z,19.10
2017-08-13T06:43:26.933Z,19.10
2017-08-13T06:46:01.507Z,19.10
2017-08-13T06:48:35.996Z,19.10
2017-08-13T06:51:10.574Z,19.00
2017-08-13T06:53:45.278Z,19.00
2017-08-13T06:56:19.706Z,19.10
2017-08-13T06:58:54.293Z,19.20
2017-08-13T07:01:28.874Z,19.20
2017-08-13T07:04:03.579Z,19.20
2017-08-13T07:06:38.209Z,19.40
2017-08-13T07:09:12.881Z,19.50
2017-08-13T07:11:47.521Z,19.50
2017-08-13T07:14:22.105Z,19.70
2017-08-13T07:16:56.731Z,19.70
2017-08-13T07:19:31.349Z,19.80
2017-08-13T07:22:05.961Z,19.80
2017-08-13T07:24:40.388Z,19.90
2017-08-13T07:27:14.950Z,20.10
2017-08-13T07:29:49.617Z,20.40
2017-08-13T07:32:24.221Z,20.50
2017-08-13T07:34:58.865Z,20.50
2017-08-13T07:37:33.489Z,20.50
2017-08-13T07:40:14.557Z,20.70
2017-08-13T07:42:49.124Z,20.90
2017-08-13T07:45:23.749Z,21.00
2017-08-13T07:47:58.268Z,21.10
2017-08-13T07:50:32.854Z,21.30
2017-08-13T07:53:07.313Z,21.30
2017-08-13T07:55:41.906Z,21.40
2017-08-13T07:58:16.369Z,21.40
2017-08-13T08:00:50.990Z,21.30
2017-08-13T08:03:25.600Z,21.50
2017-08-13T08:06:00.175Z,21.50
2017-08-13T08:08:34.748Z,21.60
2017-08-13T08:11:09.350Z,21.60
2017-08-13T08:13:43.889Z,21.80
2017-08-13T08:16:18.473Z,21.80
2017-08-13T08:18:52.946Z,21.80
2017-08-13T08:21:27.522Z,21.70
2017-08-13T08:24:02.137Z,21.50
2017-08-13T08:26:36.678Z,21.60
2017-08-13T08:29:11.198Z,21.70
2017-08-13T08:31:45.803Z,21.80
2017-08-13T08:34:20.233Z,22.00
2017-08-13T08:36:54.774Z,22.20
2017-08-13T08:39:29.394Z,22.30
2017-08-13T08:42:03.945Z,22.10
2017-08-13T08:44:38.486Z,22.00
2017-08-13T08:47:13.057Z,21.90
2017-08-13T08:49:48.362Z,22.10
2017-08-13T08:52:22.889Z,22.10
2017-08-13T08:54:57.474Z,22.30
2017-08-13T08:57:32.038Z,22.50
2017-08-13T09:00:13.506Z,22.70
2017-08-13T09:02:47.934Z,22.50
2017-08-13T09:05:23.306Z,22.70
2017-08-13T09:07:57.886Z,22.60
2017-08-13T09:10:32.070Z,22.90
2017-08-13T09:13:06.514Z,23.10
2017-08-13T09:15:42.673Z,23.20
2017-08-13T09:18:17.232Z,23.10
2017-08-13T09:20:51.793Z,23.20
2017-08-13T09:23:26.286Z,23.00
2017-08-13T09:26:00.890Z,23.00
2017-08-13T09:28:35.402Z,23.00
2017-08-13T09:31:09.978Z,23.00
2017-08-13T09:33:44.537Z,22.80
2017-08-13T09:36:19.161Z,22.60
2017-08-13T09:38:53.841Z,22.70
2017-08-13T09:41:28.314Z,22.70
2017-08-13T09:44:02.930Z,22.70
2017-08-13T09:46:37.482Z,22.90
2017-08-13T09:49:12.078Z,22.90
2017-08-13T09:51:46.668Z,23.10
2017-08-13T09:54:21.241Z,23.10
2017-08-13T09:56:55.813Z,23.10
2017-08-13T09:59:30.375Z,23.50
2017-08-13T10:02:04.844Z,23.60
2017-08-13T10:04:39.386Z,23.60
2017-08-13T10:07:14.818Z,24.20
2017-08-13T10:09:49.438Z,24.10
2017-08-13T10:12:23.974Z,24.50
2017-08-13T10:14:59.286Z,24.40
2017-08-13T10:17:33.786Z,24.30
2017-08-13T10:20:14.275Z,24.00
2017-08-13T10:22:49.063Z,23.80
2017-08-13T10:25:23.726Z,23.80
2017-08-13T10:27:58.349Z,23.80
2017-08-13T10:30:32.877Z,24.20
2017-08-13T10:33:07.442Z,24.70
2017-08-13T10:35:42.033Z,25.10
2017-08-13T10:38:16.513Z,25.40
2017-08-13T10:40:51.149Z,25.20
2017-08-13T10:43:25.744Z,25.00
2017-08-13T10:46:00.359Z,25.20
2017-08-13T10:48:35.581Z,25.40
2017-08-13T10:51:10.169Z,25.10
2017-08-13T10:53:44.744Z,24.80
2017-08-13T10:56:19.331Z,24.90
2017-08-13T10:58:54.025Z,24.90
2017-08-13T11:01:28.631Z,25.00
2017-08-13T11:04:03.408Z,25.50
2017-08-13T11:06:37.874Z,26.00
2017-08-13T11:09:11.939Z,26.20
2017-08-13T11:11:46.422Z,26.20
2017-08-13T11:14:21.618Z,26.90
2017-08-13T11:16:56.114Z,26.80
2017-08-13T11:19:30.742Z,27.00
2017-08-13T11:22:05.298Z,27.30
2017-08-13T11:24:39.870Z,27.90
2017-08-13T11:27:14.460Z,28.30
2017-08-13T11:29:49.248Z,28.20
2017-08-13T11:32:23.921Z,28.30
2017-08-13T11:34:58.478Z,28.10
2017-08-13T11:37:33.124Z,27.70
2017-08-13T11:40:13.693Z,27.60
2017-08-13T11:42:48.226Z,27.40
2017-08-13T11:45:23.556Z,27.20
2017-08-13T11:47:58.010Z,27.10
2017-08-13T11:50:32.557Z,27.30
2017-08-13T11:53:07.148Z,27.30
2017-08-13T11:55:41.606Z,27.40
2017-08-13T11:58:16.811Z,27.30
2017-08-13T12:00:51.230Z,27.30
2017-08-13T12:03:25.866Z,26.90
2017-08-13T12:06:00.375Z,26.60
2017-08-13T12:08:34.813Z,26.30
2017-08-13T12:11:09.467Z,26.30
2017-08-13T12:13:43.901Z,26.20
2017-08-13T12:16:18.471Z,26.20
2017-08-13T12:18:52.949Z,26.10
2017-08-13T12:21:27.469Z,26.50
2017-08-13T12:24:01.993Z,26.80
2017-08-13T12:26:36.527Z,27.30
2017-08-13T12:29:10.961Z,27.40
2017-08-13T12:31:45.557Z,27.20
2017-08-13T12:34:20.158Z,27.10
2017-08-13T12:36:54.746Z,27.10
2017-08-13T12:39:29.168Z,27.30
2017-08-13T12:42:03.773Z,27.30
2017-08-13T12:44:39.148Z,27.70
2017-08-13T12:47:13.652Z,27.60
2017-08-13T12:49:48.297Z,28.00
2017-08-13T12:52:22.878Z,27.90
2017-08-13T12:54:57.357Z,27.80
2017-08-13T12:57:31.950Z,27.70
2017-08-13T13:00:14.671Z,27.50
2017-08-13T13:02:49.153Z,27.40
2017-08-13T13:05:23.778Z,27.80
2017-08-13T13:07:58.206Z,27.90
2017-08-13T13:10:32.782Z,28.20
2017-08-13T13:13:08.125Z,28.40
2017-08-13T13:15:42.553Z,28.40
2017-08-13T13:18:17.123Z,28.70
2017-08-13T13:20:51.702Z,28.70
2017-08-13T13:23:26.242Z,28.60
2017-08-13T13:26:00.808Z,28.50
2017-08-13T13:28:35.373Z,28.50
2017-08-13T13:31:09.917Z,28.40
2017-08-13T13:33:44.390Z,28.30
2017-08-13T13:36:19.751Z,28.20
2017-08-13T13:38:54.296Z,28.20
2017-08-13T13:41:28.862Z,28.00
2017-08-13T13:44:03.307Z,27.80
2017-08-13T13:46:37.570Z,27.60
2017-08-13T13:49:12.991Z,27.70
2017-08-13T13:51:47.630Z,27.60
2017-08-13T13:54:22.223Z,27.90
2017-08-13T13:56:56.778Z,27.80
2017-08-13T13:59:31.357Z,27.80
2017-08-13T14:02:05.958Z,27.90
2017-08-13T14:04:40.670Z,27.90
2017-08-13T14:07:15.291Z,27.80
2017-08-13T14:09:49.878Z,27.80
2017-08-13T14:12:24.470Z,27.80
2017-08-13T14:14:58.889Z,27.60
2017-08-13T14:17:33.480Z,27.60
2017-08-13T14:20:13.459Z,27.40
2017-08-13T14:22:47.913Z,27.20
2017-08-13T14:25:22.509Z,27.20
2017-08-13T14:27:57.105Z,27.20
2017-08-13T14:30:31.681Z,27.10
2017-08-13T14:33:06.265Z,27.10
2017-08-13T14:35:40.848Z,26.80
2017-08-13T14:38:15.529Z,26.60
2017-08-13T14:40:49.977Z,26.40
2017-08-13T14:43:24.520Z,26.40
2017-08-13T14:45:59.094Z,26.40
2017-08-13T14:48:33.507Z,26.30
2017-08-13T14:51:08.057Z,26.20
2017-08-13T14:53:42.568Z,26.20
2017-08-13T14:56:17.113Z,26.10
2017-08-13T14:58:51.538Z,26.00
2017-08-13T15:01:26.161Z,26.00
2017-08-13T15:04:00.743Z,25.70
2017-08-13T15:06:35.313Z,25.60
2017-08-13T15:09:09.729Z,25.40
2017-08-13T15:11:44.309Z,25.30
2017-08-13T15:14:18.829Z,25.20
2017-08-13T15:16:53.358Z,25.10
2017-08-13T15:19:27.853Z,25.10
2017-08-13T15:22:02.406Z,25.10
2017-08-13T15:24:37.026Z,25.10
2017-08-13T15:29:55.702Z,24.90
2017-08-13T15:32:30.233Z,24.90
2017-08-13T15:35:12.230Z,24.90
2017-08-13T15:37:46.783Z,24.90
2017-08-13T15:40:21.502Z,24.90
2017-08-13T15:42:56.114Z,24.70
2017-08-13T15:45:30.760Z,24.70
2017-08-13T15:48:05.266Z,24.60
2017-08-13T15:50:39.834Z,24.70
2017-08-13T15:53:14.497Z,24.60
2017-08-13T15:55:48.921Z,24.60
2017-08-13T15:58:23.507Z,24.50
2017-08-13T16:00:58.013Z,24.50
2017-08-13T16:03:32.551Z,24.50
2017-08-13T16:06:06.813Z,24.40
2017-08-13T16:08:41.389Z,24.30
2017-08-13T16:11:15.977Z,24.30
2017-08-13T16:13:50.549Z,24.30
2017-08-13T16:16:25.113Z,24.20
2017-08-13T16:18:59.757Z,24.10
2017-08-13T16:21:34.357Z,24.10
2017-08-13T16:24:08.965Z,24.10
2017-08-13T16:26:43.584Z,24.00
2017-08-13T16:29:18.218Z,24.00
2017-08-13T16:31:52.794Z,24.00
2017-08-13T16:34:27.394Z,24.00
2017-08-13T16:37:01.921Z,23.90
2017-08-13T16:39:36.366Z,23.90
2017-08-13T16:42:10.917Z,23.80
2017-08-13T16:44:45.458Z,23.90
2017-08-13T16:47:20.093Z,23.90
2017-08-13T16:49:55.433Z,23.80
2017-08-13T16:52:30.005Z,23.80
2017-08-13T16:55:12.613Z,23.80
2017-08-13T16:57:47.046Z,23.80
2017-08-13T17:00:21.655Z,23.80
2017-08-13T17:02:56.082Z,23.70
2017-08-13T17:05:30.582Z,23.70
2017-08-13T17:08:06.010Z,23.70
2017-08-13T17:10:40.441Z,23.60
2017-08-13T17:13:15.057Z,23.70
2017-08-13T17:15:49.713Z,23.60
2017-08-13T17:18:24.230Z,23.60
2017-08-13T17:20:58.774Z,23.60
2017-08-13T17:23:33.254Z,23.60
2017-08-13T17:26:07.881Z,23.40
2017-08-13T17:28:42.371Z,23.40
2017-08-13T17:31:16.916Z,23.30
2017-08-13T17:33:51.473Z,23.30
2017-08-13T17:36:26.082Z,23.20
2017-08-13T17:39:00.547Z,23.20
2017-08-13T17:41:35.118Z,23.20
2017-08-13T17:44:09.698Z,23.10
2017-08-13T17:46:44.233Z,23.10
2017-08-13T17:49:18.798Z,23.00
2017-08-13T17:51:53.385Z,23.00
2017-08-13T17:54:27.961Z,22.90
2017-08-13T17:57:02.450Z,22.90
2017-08-13T17:59:36.865Z,22.80
2017-08-13T18:02:11.454Z,22.70
2017-08-13T18:04:46.023Z,22.60
2017-08-13T18:07:20.650Z,22.60
2017-08-13T18:09:55.070Z,22.60
2017-08-13T18:12:29.610Z,22.50
2017-08-13T18:15:12.434Z,22.40
2017-08-13T18:17:47.100Z,22.30
2017-08-13T18:20:21.645Z,22.30
2017-08-13T18:22:56.243Z,22.30
2017-08-13T18:25:31.573Z,22.20
2017-08-13T18:28:06.069Z,22.10
2017-08-13T18:30:40.646Z,22.20
2017-08-13T18:33:15.309Z,22.10
2017-08-13T18:35:49.907Z,22.10
2017-08-13T18:38:24.585Z,22.10
2017-08-13T18:40:59.089Z,22.10
2017-08-13T18:43:33.721Z,22.10
2017-08-13T18:46:08.277Z,22.00
2017-08-13T18:48:42.793Z,22.00
2017-08-13T18:51:17.442Z,22.00
2017-08-13T18:53:52.025Z,22.00
2017-08-13T18:56:26.594Z,22.00
2017-08-13T18:59:01.242Z,21.90
2017-08-13T19:01:35.841Z,21.90
2017-08-13T19:04:10.386Z,21.80
2017-08-13T19:06:44.981Z,21.80
2017-08-13T19:09:20.305Z,21.70
2017-08-13T19:11:54.822Z,21.70
2017-08-13T19:14:29.400Z,21.60
2017-08-13T19:17:03.827Z,21.60
2017-08-13T19:19:38.393Z,21.60
2017-08-13T19:22:13.018Z,21.50
2017-08-13T19:24:48.354Z,21.50
2017-08-13T19:27:22.849Z,21.40
2017-08-13T19:29:57.609Z,21.40
2017-08-13T19:32:32.282Z,21.40
2017-08-13T19:35:15.977Z,21.30
2017-08-13T19:37:50.548Z,21.30
2017-08-13T19:40:25.092Z,21.30
2017-08-13T19:42:59.746Z,21.20
2017-08-13T19:45:33.954Z,21.20
2017-08-13T19:48:08.598Z,21.10
2017-08-13T19:50:43.391Z,21.10
2017-08-13T19:53:18.409Z,21.10
2017-08-13T19:55:52.985Z,21.00
2017-08-13T19:58:27.553Z,21.10
2017-08-13T20:01:02.083Z,21.00
2017-08-13T20:03:36.578Z,21.00
2017-08-13T20:06:11.153Z,21.00
2017-08-13T20:08:45.597Z,21.00
2017-08-13T20:11:20.217Z,21.00
2017-08-13T20:13:54.769Z,21.00
2017-08-13T20:16:29.507Z,21.00
2017-08-13T20:19:04.908Z,21.00
2017-08-13T20:21:39.448Z,21.00
2017-08-13T20:24:14.250Z,21.00
2017-08-13T20:26:48.790Z,21.00
2017-08-13T20:29:24.063Z,21.00
2017-08-13T20:31:58.674Z,20.90
2017-08-13T20:34:33.185Z,20.90
2017-08-13T20:37:07.715Z,20.90
2017-08-13T20:39:42.329Z,20.90
2017-08-13T20:42:16.982Z,20.90
2017-08-13T20:44:51.591Z,20.90
2017-08-13T20:47:26.906Z,20.80
2017-08-13T20:50:01.499Z,20.80
2017-08-13T20:52:36.093Z,20.80
2017-08-13T20:55:16.476Z,20.70
2017-08-13T20:57:50.930Z,20.70
2017-08-13T21:00:25.607Z,20.70
2017-08-13T21:03:00.034Z,20.70
2017-08-13T21:05:34.732Z,20.70
2017-08-13T21:08:09.338Z,20.50
2017-08-13T21:10:43.905Z,20.50
2017-08-13T21:13:18.426Z,20.50
2017-08-13T21:15:52.965Z,20.50
2017-08-13T21:18:27.649Z,20.60
2017-08-13T21:21:02.197Z,20.50
2017-08-13T21:23:36.718Z,20.40
2017-08-13T21:26:11.509Z,20.40
2017-08-13T21:28:46.209Z,20.40
2017-08-13T21:31:21.532Z,20.40
2017-08-13T21:33:56.124Z,20.30
2017-08-13T21:36:30.686Z,20.40
2017-08-13T21:39:04.547Z,20.40
2017-08-13T21:41:39.001Z,20.30
2017-08-13T21:44:13.461Z,20.30
2017-08-13T21:46:48.066Z,20.30
2017-08-13T21:49:22.662Z,20.30
2017-08-13T21:51:57.206Z,20.30
2017-08-13T21:54:31.706Z,20.30
2017-08-13T21:57:06.219Z,20.30
2017-08-13T21:59:40.781Z,20.40
2017-08-13T22:02:15.353Z,20.40
2017-08-13T22:04:49.982Z,20.40
2017-08-13T22:07:24.505Z,20.30
2017-08-13T22:09:59.149Z,20.30
2017-08-13T22:12:33.806Z,20.30
2017-08-13T22:15:15.557Z,20.30
2017-08-13T22:17:50.107Z,20.30
2017-08-13T22:20:25.438Z,20.30
2017-08-13T22:22:59.865Z,20.20
2017-08-13T22:25:34.457Z,20.30
2017-08-13T22:28:08.906Z,20.20
2017-08-13T22:30:43.470Z,20.20
2017-08-13T22:33:18.042Z,20.10
2017-08-13T22:35:52.683Z,20.10
2017-08-13T22:38:27.141Z,20.10
2017-08-13T22:41:01.754Z,20.10
2017-08-13T22:43:36.179Z,20.10
2017-08-13T22:46:10.734Z,20.10
2017-08-13T22:48:45.180Z,20.00
2017-08-13T22:51:19.742Z,20.00
2017-08-13T22:53:54.214Z,20.00
2017-08-13T22:56:28.794Z,20.00
2017-08-13T22:59:03.402Z,20.00
2017-08-13T23:01:38.733Z,20.00
2017-08-13T23:04:13.282Z,20.00
2017-08-13T23:06:47.781Z,20.00
2017-08-13T23:09:22.338Z,20.00
2017-08-13T23:11:57.036Z,20.00
2017-08-13T23:14:31.474Z,20.00
2017-08-13T23:17:11.915Z,20.00
2017-08-13T23:19:46.466Z,20.00
2017-08-13T23:22:21.030Z,20.00
2017-08-13T23:24:55.505Z,20.00
2017-08-13T23:27:30.121Z,19.90
2017-08-13T23:30:14.518Z,19.90
2017-08-13T23:32:49.044Z,19.90
2017-08-13T23:35:23.638Z,19.90
2017-08-13T23:37:58.070Z,19.90
2017-08-13T23:40:32.673Z,19.90
2017-08-13T23:43:07.094Z,19.90
2017-08-13T23:45:41.665Z,19.90
2017-08-13T23:48:16.356Z,19.90
2017-08-13T23:50:50.921Z,19.90
2017-08-13T23:53:25.549Z,19.90
2017-08-13T23:56:00.074Z,19.90
2017-08-13T23:58:34.670Z,19.90
